Monday, September 22, 2014, 12:13 AM EDT

KJYO, Leesburg / Godfrey

Location: Leesburg, VA, United States Lat: 39.083
Local Time: 12:13 AM EDT ( 4:13 GMT) Lon: -77.567
Time Zone: US/Eastern Elev: 390 ft

Show me the last for .
Show Decoded

2014-09-21 23:35 METAR KJYO 220335Z AUTO 31011G14KT 10SM CLR 22/15 A2977 RMK AO2 =
2014-09-21 23:15 METAR KJYO 220315Z AUTO 30009G15KT 10SM SCT100 SCT120 23/16 A2977 RMK AO2 =
2014-09-21 22:55 METAR KJYO 220255Z AUTO 31012G18KT 270V330 10SM BKN100 24/16 A2975 RMK AO2 =
2014-09-21 22:35 METAR KJYO 220235Z AUTO 31010G19KT 10SM BKN100 BKN120 24/16 A2975 RMK AO2 =
2014-09-21 22:15 METAR KJYO 220215Z AUTO 30015G23KT 10SM BKN090 OVC120 25/16 A2973 RMK AO2 =
2014-09-21 21:55 METAR KJYO 220155Z AUTO 32009G20KT 10SM OVC090 25/17 A2972 RMK AO2 =
2014-09-21 21:35 METAR KJYO 220135Z AUTO 30009G17KT 10SM BKN075 OVC090 25/17 A2972 RMK AO2 =
2014-09-21 21:15 METAR KJYO 220115Z AUTO 32014KT 10SM BKN075 OVC090 25/16 A2971 RMK AO2 =
2014-09-21 20:55 METAR KJYO 220055Z AUTO 31012G17KT 10SM SCT080 OVC090 24/16 A2971 RMK AO2 =
2014-09-21 20:35 METAR KJYO 220035Z AUTO 30014G25KT 10SM SCT060 SCT070 OVC090 25/16 A2971 RMK AO2
                 =
2014-09-21 20:15 METAR KJYO 220015Z AUTO 31011KT 10SM SCT060 SCT070 BKN090 22/21 A2970 RMK AO2 =
2014-09-21 19:55 METAR KJYO 212355Z AUTO 22003KT 10SM CLR 22/21 A2968 RMK AO2 =
2014-09-21 19:35 METAR KJYO 212335Z AUTO 00000KT 10SM SCT070 23/21 A2968 RMK AO2 =
2014-09-21 19:15 METAR KJYO 212315Z AUTO 00000KT 10SM CLR 23/21 A2967 RMK AO2 =
2014-09-21 18:55 METAR KJYO 212255Z AUTO 00000KT 10SM SCT060 SCT095 24/22 A2967 RMK AO2 =
2014-09-21 18:35 METAR KJYO 212235Z AUTO 00000KT 10SM SCT025 SCT049 OVC095 24/22 A2967 RMK AO2 =
2014-09-21 18:15 METAR KJYO 212215Z AUTO 20008KT 7SM -RA BKN070 BKN075 OVC090 26/21 A2967 RMK AO2
                 =
2014-09-21 17:55 METAR KJYO 212155Z AUTO 21005KT 10SM BKN070 BKN085 28/18 A2966 RMK AO2 =
2014-09-21 17:35 METAR KJYO 212135Z AUTO 22006KT 10SM CLR 29/18 A2966 RMK AO2 =
2014-09-21 17:15 METAR KJYO 212115Z AUTO 21007KT 10SM CLR 28/18 A2965 RMK AO2 =
2014-09-21 16:55 METAR KJYO 212055Z AUTO 22009KT 10SM CLR 30/18 A2966 RMK AO2 =
2014-09-21 16:35 METAR KJYO 212035Z AUTO 20009G16KT 10SM CLR 30/18 A2966 RMK AO2 =
2014-09-21 16:15 METAR KJYO 212015Z AUTO 21008KT 10SM CLR 30/18 A2967 RMK AO2 =
2014-09-21 15:55 METAR KJYO 211955Z AUTO 20006KT 190V250 10SM CLR 30/18 A2968 RMK AO2 =
2014-09-21 15:35 METAR KJYO 211935Z AUTO 17011KT 10SM SCT120 31/18 A2968 RMK AO2 =
2014-09-21 15:15 METAR KJYO 211915Z AUTO 18007KT 10SM CLR 30/17 A2969 RMK AO2 =
2014-09-21 14:55 METAR KJYO 211855Z AUTO 17005KT 10SM CLR 30/17 A2970 RMK AO2 =
2014-09-21 14:35 METAR KJYO 211835Z AUTO 20008KT 10SM VCTS CLR 30/18 A2972 RMK AO2 =
2014-09-21 14:15 METAR KJYO 211815Z AUTO 21007KT 10SM CLR 29/18 A2974 RMK AO2 =
2014-09-21 13:55 METAR KJYO 211755Z AUTO 20005KT 10SM CLR 29/18 A2975 RMK AO2 =
2014-09-21 13:35 METAR KJYO 211735Z AUTO 20005KT 10SM CLR 28/17 A2977 RMK AO2 =
2014-09-21 13:15 METAR KJYO 211715Z AUTO 17003KT 10SM CLR 28/18 A2977 RMK AO2 =
2014-09-21 12:55 METAR KJYO 211655Z AUTO 18006KT 10SM CLR 28/17 A2979 RMK AO2 =
2014-09-21 12:35 METAR KJYO 211635Z AUTO 21006KT 10SM CLR 27/18 A2980 RMK AO2 =
2014-09-21 12:15 METAR KJYO 211615Z AUTO 00000KT 10SM CLR 26/18 A2982 RMK AO2 =
2014-09-21 11:55 METAR KJYO 211555Z AUTO 19006KT 10SM CLR 25/18 A2983 RMK AO2 =
2014-09-21 11:35 METAR KJYO 211535Z AUTO 19003KT 10SM CLR 24/17 A2984 RMK AO2 =
2014-09-21 11:15 METAR KJYO 211515Z AUTO 15005KT 10SM CLR 23/18 A2986 RMK AO2 =
2014-09-21 10:55 METAR KJYO 211455Z AUTO 14003KT 10SM CLR 22/18 A2987 RMK AO2 =
2014-09-21 10:35 METAR KJYO 211435Z AUTO 00000KT 10SM CLR 21/18 A2988 RMK AO2 =
2014-09-21 10:15 METAR KJYO 211415Z AUTO 00000KT 10SM CLR 20/18 A2989 RMK AO2 =
2014-09-21 09:55 METAR KJYO 211355Z AUTO 00000KT 10SM CLR 18/17 A2989 RMK AO2 =
2014-09-21 09:35 METAR KJYO 211335Z AUTO 00000KT 10SM CLR 18/17 A2990 RMK AO2 =
2014-09-21 09:15 METAR KJYO 211315Z AUTO 00000KT 7SM CLR 16/16 A2989 RMK AO2 =
2014-09-21 08:55 METAR KJYO 211255Z AUTO 00000KT 10SM CLR 16/16 A2989 RMK AO2 =
2014-09-21 08:35 METAR KJYO 211235Z AUTO 00000KT 10SM CLR 15/15 A2990 RMK AO2 =
2014-09-21 08:15 METAR KJYO 211215Z AUTO 00000KT 7SM CLR 15/15 A2990 RMK AO2 =
2014-09-21 07:55 METAR KJYO 211155Z AUTO 00000KT 10SM CLR 13/13 A2990 RMK AO2 =
2014-09-21 07:15 METAR KJYO 211115Z AUTO 13003KT 10SM CLR 14/14 A2991 RMK AO2 =
2014-09-21 06:55 METAR KJYO 211055Z AUTO 00000KT 10SM CLR 14/14 A2991 RMK AO2 =
2014-09-21 06:35 METAR KJYO 211035Z AUTO 33004KT 7SM CLR 13/13 A2991 RMK AO2 =
2014-09-21 06:15 METAR KJYO 211015Z AUTO 00000KT 7SM CLR 13/13 A2991 RMK AO2 =
2014-09-21 05:55 METAR KJYO 210955Z AUTO 00000KT 7SM CLR 13/13 A2991 RMK AO2 =
2014-09-21 05:35 METAR KJYO 210935Z AUTO 00000KT 10SM CLR 13/13 A2992 RMK AO2 =
2014-09-21 05:15 METAR KJYO 210915Z AUTO 00000KT 10SM CLR 13/13 A2994 RMK AO2 =
2014-09-21 04:55 METAR KJYO 210855Z AUTO 00000KT 10SM CLR 13/13 A2994 RMK AO2 =
2014-09-21 04:35 METAR KJYO 210835Z AUTO 00000KT 10SM CLR 15/15 A2993 RMK AO2 =
2014-09-21 04:15 METAR KJYO 210815Z AUTO 33004KT 10SM CLR 14/14 A2994 RMK AO2 =
2014-09-21 03:55 METAR KJYO 210755Z AUTO 00000KT 10SM CLR 14/14 A2994 RMK AO2 =
2014-09-21 03:35 METAR KJYO 210735Z AUTO 00000KT 10SM CLR 15/15 A2994 RMK AO2 =
2014-09-21 03:15 METAR KJYO 210715Z AUTO 00000KT 10SM CLR 16/16 A2995 RMK AO2 =
2014-09-21 02:35 METAR KJYO 210635Z AUTO 00000KT 10SM CLR 17/16 A2998 RMK AO2 =
2014-09-21 02:15 METAR KJYO 210615Z AUTO 00000KT 10SM CLR 16/16 A2998 RMK AO2 =
2014-09-21 01:55 METAR KJYO 210555Z AUTO 00000KT 10SM CLR 16/16 A3001 RMK AO2 =
2014-09-21 01:35 METAR KJYO 210535Z AUTO 24003KT 10SM CLR 17/16 A3002 RMK AO2 =
2014-09-21 01:15 METAR KJYO 210515Z AUTO 24003KT 10SM CLR 17/16 A3003 RMK AO2 =
2014-09-21 00:55 METAR KJYO 210455Z AUTO 26003KT 10SM CLR 17/16 A3004 RMK AO2 =
2014-09-21 00:35 METAR KJYO 210435Z AUTO 24003KT 10SM CLR 18/16 A3006 RMK AO2 =
2014-09-21 00:15 METAR KJYO 210415Z AUTO 23004KT 10SM CLR 18/17 A3007 RMK AO2 =

Support USWX by starting your Amazon purchase here.